createdAt,value
2023-01-11T00:01:10.840Z,99882.88
2023-01-11T00:03:43.490Z,99865.88
2023-01-11T00:06:11.774Z,99854.34
2023-01-11T00:08:39.243Z,99846.91
2023-01-11T00:11:15.763Z,99846.31
2023-01-11T00:13:46.173Z,99844.66
2023-01-11T00:16:13.948Z,99847.88
2023-01-11T00:18:43.749Z,99839.75
2023-01-11T00:21:10.534Z,99834.53
2023-01-11T00:23:38.555Z,99836.94
2023-01-11T00:26:13.190Z,99827.50
2023-01-11T00:28:39.800Z,99833.28
2023-01-11T00:31:09.849Z,99828.78
2023-01-11T00:33:36.538Z,99819.63
2023-01-11T00:36:03.291Z,99823.00
2023-01-11T00:38:46.767Z,99822.06
2023-01-11T00:41:34.998Z,99801.50
2023-01-11T00:44:22.322Z,99785.19
2023-01-11T00:47:11.309Z,99797.00
2023-01-11T00:49:38.224Z,99791.66
2023-01-11T00:52:09.804Z,99778.19
2023-01-11T00:54:43.683Z,99787.59
2023-01-11T00:57:10.467Z,99779.59
2023-01-11T00:59:41.310Z,99778.59
2023-01-11T01:02:12.340Z,99782.56
2023-01-11T01:04:42.777Z,99764.41
2023-01-11T01:07:09.592Z,99774.81
2023-01-11T01:09:40.271Z,99774.13
2023-01-11T01:12:09.951Z,99773.13
2023-01-11T01:14:36.868Z,99774.66
2023-01-11T01:17:08.942Z,99761.88
2023-01-11T01:19:46.300Z,99760.06
2023-01-11T01:22:12.992Z,99747.13
2023-01-11T01:24:42.190Z,99747.81
2023-01-11T01:27:16.676Z,99746.53
2023-01-11T01:29:44.490Z,99748.78
2023-01-11T01:32:11.601Z,99741.22
2023-01-11T01:34:41.471Z,99736.69
2023-01-11T01:37:11.088Z,99747.81
2023-01-11T01:39:37.970Z,99735.84
2023-01-11T01:42:06.268Z,99723.19
2023-01-11T01:45:16.750Z,99728.22
2023-01-11T01:48:16.128Z,99726.25
2023-01-11T01:50:59.883Z,99718.22
2023-01-11T01:53:37.349Z,99712.59
2023-01-11T01:56:13.226Z,99712.59
2023-01-11T01:58:56.323Z,99716.84
2023-01-11T02:01:41.429Z,99696.72
2023-01-11T02:04:42.909Z,99695.44
2023-01-11T02:07:20.807Z,99695.97
2023-01-11T02:10:05.181Z,99688.34
2023-01-11T02:12:40.680Z,99688.34
2023-01-11T02:15:12.400Z,99692.72
2023-01-11T02:17:39.159Z,99683.25
2023-01-11T02:20:27.127Z,99687.19
2023-01-11T02:23:16.792Z,99673.69
2023-01-11T02:26:41.897Z,99665.34
2023-01-11T02:29:42.416Z,99684.78
2023-01-11T02:32:35.288Z,99669.44
2023-01-11T02:35:57.752Z,99671.66
2023-01-11T02:38:47.349Z,99673.19
2023-01-11T02:41:57.172Z,99674.88
2023-01-11T02:45:01.921Z,99662.75
2023-01-11T02:48:02.175Z,99670.06
2023-01-11T02:50:55.254Z,99657.38
2023-01-11T02:53:42.459Z,99648.53
2023-01-11T02:56:24.713Z,99654.72
2023-01-11T02:58:56.851Z,99654.72
2023-01-11T03:01:25.619Z,99646.69
2023-01-11T03:03:54.044Z,99648.22
2023-01-11T03:06:34.609Z,99640.88
2023-01-11T03:09:56.940Z,99643.41
2023-01-11T03:12:52.683Z,99643.94
2023-01-11T03:16:16.584Z,99639.97
2023-01-11T03:19:25.587Z,99636.84
2023-01-11T03:22:15.982Z,99627.69
2023-01-11T03:25:12.161Z,99631.88
2023-01-11T03:28:33.140Z,99616.69
2023-01-11T03:31:15.198Z,99621.88
2023-01-11T03:34:27.789Z,99625.41
2023-01-11T03:37:11.024Z,99608.91
2023-01-11T03:40:04.173Z,99606.03
2023-01-11T03:42:57.364Z,99606.59
2023-01-11T03:45:28.749Z,99593.06
2023-01-11T03:48:02.108Z,99584.16
2023-01-11T03:50:33.347Z,99594.28
2023-01-11T03:53:07.423Z,99594.81
2023-01-11T03:55:44.419Z,99589.28
2023-01-11T03:58:11.364Z,99587.47
2023-01-11T04:00:41.016Z,99585.50
2023-01-11T04:03:12.623Z,99576.84
2023-01-11T04:05:47.113Z,99586.81
2023-01-11T04:08:17.021Z,99586.50
2023-01-11T04:10:43.735Z,99588.03
2023-01-11T04:13:10.441Z,99584.88
2023-01-11T04:15:37.579Z,99589.78
2023-01-11T04:18:08.095Z,99600.34
2023-01-11T04:20:42.693Z,99590.16
2023-01-11T04:23:12.516Z,99588.16
2023-01-11T04:25:40.615Z,99580.97
2023-01-11T04:28:11.294Z,99594.06
2023-01-11T04:30:38.000Z,99573.63
2023-01-11T04:33:07.752Z,99571.69
2023-01-11T04:35:34.446Z,99581.25
2023-01-11T04:38:01.165Z,99568.66
2023-01-11T04:40:27.851Z,99571.34
2023-01-11T04:42:54.557Z,99567.16
2023-01-11T04:45:21.299Z,99569.91
2023-01-11T04:47:58.010Z,99560.47
2023-01-11T04:50:26.326Z,99567.75
2023-01-11T04:52:53.588Z,99570.44
2023-01-11T04:55:21.267Z,99571.28
2023-01-11T04:57:50.153Z,99570.13
2023-01-11T05:00:17.656Z,99570.13
2023-01-11T05:02:44.362Z,99570.81
2023-01-11T05:05:12.104Z,99573.16
2023-01-11T05:07:41.945Z,99577.53
2023-01-11T06:04:26.074Z,99590.41
2023-01-11T06:06:52.842Z,99589.41
2023-01-11T07:28:00.230Z,99666.97
2023-01-11T07:30:30.532Z,99672.16
2023-01-11T07:33:00.508Z,99673.88
2023-01-11T07:35:29.132Z,99669.00
2023-01-11T07:37:56.027Z,99669.16
2023-01-11T07:40:22.835Z,99669.16
2023-01-11T07:43:13.558Z,99680.75
2023-01-11T07:45:50.148Z,99686.63
2023-01-11T07:48:24.527Z,99686.63
2023-01-11T07:50:52.436Z,99695.22
2023-01-11T07:53:19.211Z,99695.06
2023-01-11T07:55:47.471Z,99699.56
2023-01-11T07:58:15.553Z,99692.03
2023-01-11T08:00:46.151Z,99689.19
2023-01-11T08:03:13.339Z,99699.41
2023-01-11T08:05:40.765Z,99701.78
2023-01-11T08:08:10.457Z,99704.31
2023-01-11T08:10:37.157Z,99710.69
2023-01-11T08:13:32.515Z,99717.91
2023-01-11T08:16:00.050Z,99723.28
2023-01-11T08:18:26.798Z,99721.44
2023-01-11T08:20:53.577Z,99719.25
2023-01-11T08:23:20.207Z,99713.72
2023-01-11T08:25:46.891Z,99716.56
2023-01-11T08:28:13.595Z,99722.63
2023-01-11T08:30:47.179Z,99718.25
2023-01-11T08:33:13.913Z,99721.28
2023-01-11T08:35:40.942Z,99708.53
2023-01-11T08:38:08.158Z,99717.97
2023-01-11T08:40:38.041Z,99724.19
2023-01-11T08:43:04.909Z,99734.44
2023-01-11T08:45:31.585Z,99736.13
2023-01-11T08:48:00.478Z,99737.47
2023-01-11T08:50:27.608Z,99736.63
2023-01-11T08:52:54.253Z,99734.63
2023-01-11T08:55:20.914Z,99736.34
2023-01-11T08:57:47.659Z,99750.28
2023-01-11T09:00:15.654Z,99746.06
2023-01-11T09:02:42.583Z,99747.56
2023-01-11T09:05:09.886Z,99745.56
2023-01-11T09:07:36.607Z,99753.19
2023-01-11T09:10:04.891Z,99744.31
2023-01-11T09:12:32.703Z,99739.75
2023-01-11T09:14:59.680Z,99746.84
2023-01-11T09:17:26.367Z,99738.94
2023-01-11T09:19:53.002Z,99747.00
2023-01-11T09:22:19.657Z,99750.53
2023-01-11T09:24:46.434Z,99753.56
2023-01-11T09:27:13.148Z,99752.06
2023-01-11T09:29:39.961Z,99763.69
2023-01-11T09:32:09.275Z,99773.09
2023-01-11T09:34:37.965Z,99775.13
2023-01-11T09:37:07.100Z,99772.94
2023-01-11T09:39:35.359Z,99775.28
2023-01-11T09:42:35.486Z,99779.16
2023-01-11T09:45:23.445Z,99775.78
2023-01-11T09:48:31.845Z,99778.31
2023-01-11T09:51:00.019Z,99787.06
2023-01-11T09:53:38.150Z,99793.13
2023-01-11T09:56:14.121Z,99782.34
2023-01-11T09:59:51.963Z,99791.09
2023-01-11T10:02:49.743Z,99783.03
2023-01-11T10:05:49.990Z,99793.78
2023-01-11T10:18:26.285Z,99807.13
2023-01-11T10:19:39.862Z,99812.84
2023-01-11T10:22:41.810Z,99814.19
2023-01-11T10:25:33.552Z,99823.91
2023-01-11T10:28:35.244Z,99822.72
2023-01-11T10:31:35.025Z,99823.06
2023-01-11T10:34:24.728Z,99825.59
2023-01-11T10:37:17.411Z,99821.03
2023-01-11T10:43:25.469Z,99814.16
2023-01-11T10:48:47.124Z,99828.94
2023-01-11T10:51:45.559Z,99825.41
2023-01-11T10:54:33.221Z,99808.25
2023-01-11T10:57:15.954Z,99816.31
2023-01-11T11:00:05.045Z,99821.69
2023-01-11T11:03:27.381Z,99823.41
2023-01-11T11:06:35.843Z,99828.59
2023-01-11T11:09:33.025Z,99833.47
2023-01-11T11:12:28.616Z,99818.50
2023-01-11T11:15:13.993Z,99828.97
2023-01-11T11:17:50.018Z,99819.88
2023-01-11T11:20:31.976Z,99821.88
2023-01-11T11:22:59.571Z,99815.31
2023-01-11T11:25:35.565Z,99813.28
2023-01-11T11:28:22.687Z,99830.28
2023-01-11T11:31:01.633Z,99830.41
2023-01-11T11:33:41.097Z,99823.03
2023-01-11T11:36:12.871Z,99818.81
2023-01-11T11:39:09.524Z,99818.22
2023-01-11T11:41:57.032Z,99812.16
2023-01-11T11:44:31.002Z,99826.75
2023-01-11T11:47:14.879Z,99818.97
2023-01-11T11:49:42.228Z,99819.63
2023-01-11T11:52:17.666Z,99820.09
2023-01-11T11:54:56.835Z,99817.72
2023-01-11T11:57:33.170Z,99816.19
2023-01-11T12:00:28.226Z,99809.00
2023-01-11T12:03:08.325Z,99804.94
2023-01-11T12:05:35.042Z,99811.69
2023-01-11T12:08:06.075Z,99815.34
2023-01-11T12:10:33.157Z,99816.19
2023-01-11T12:13:03.389Z,99812.88
2023-01-11T12:15:33.767Z,99819.78
2023-01-11T12:18:42.389Z,99818.28
2023-01-11T12:21:32.095Z,99819.97
2023-01-11T12:24:13.219Z,99813.22
2023-01-11T12:27:30.370Z,99814.09
2023-01-11T12:30:46.614Z,99821.13
2023-01-11T12:34:22.794Z,99814.75
2023-01-11T12:37:03.909Z,99816.25
2023-01-11T12:39:57.632Z,99816.56
2023-01-11T12:43:20.469Z,99816.72
2023-01-11T12:46:09.546Z,99822.09
2023-01-11T12:48:55.268Z,99829.47
2023-01-11T12:51:36.993Z,99817.72
2023-01-11T12:54:42.921Z,99822.25
2023-01-11T12:58:02.291Z,99814.53
2023-01-11T13:00:54.074Z,99813.00
2023-01-11T13:14:03.104Z,99838.97
2023-01-11T14:15:51.856Z,99898.56
2023-01-11T14:22:04.715Z,99905.00
2023-01-11T15:15:47.837Z,99962.94
2023-01-11T15:18:22.858Z,99960.41
2023-01-11T15:21:06.071Z,99965.06
2023-01-11T15:23:48.573Z,99955.75
2023-01-11T15:26:19.623Z,99957.16
2023-01-11T15:28:54.653Z,99961.81
2023-01-11T15:32:09.562Z,99960.38
2023-01-11T15:34:38.936Z,99958.81
2023-01-11T15:37:45.374Z,99969.56
2023-01-11T15:40:19.426Z,99970.41
2023-01-11T15:43:21.593Z,99967.16
2023-01-11T15:46:29.694Z,99975.22
2023-01-11T15:49:46.024Z,99974.81
2023-01-11T15:52:52.716Z,99984.34
2023-01-11T15:55:37.562Z,99974.50
2023-01-11T15:59:00.769Z,99970.97
2023-01-11T16:01:36.487Z,99975.88
2023-01-11T16:04:33.013Z,99980.41
2023-01-11T16:07:44.666Z,99972.50
2023-01-11T16:10:58.236Z,99976.19
2023-01-11T16:14:14.151Z,99971.53
2023-01-11T16:16:55.759Z,99972.66
2023-01-11T16:19:34.572Z,99979.56
2023-01-11T16:22:07.626Z,99975.06
2023-01-11T16:24:51.970Z,99967.31
2023-01-11T16:27:30.949Z,99965.50
2023-01-11T16:29:58.010Z,99968.72
2023-01-11T16:32:34.014Z,99971.13
2023-01-11T16:35:03.555Z,99972.09
2023-01-11T16:37:42.803Z,99971.00
2023-01-11T16:40:18.651Z,99978.03
2023-01-11T16:43:04.495Z,99975.06
2023-01-11T16:45:53.996Z,99970.53
2023-01-11T16:48:27.170Z,99973.22
2023-01-11T16:51:07.068Z,99973.22
2023-01-11T16:53:37.805Z,99979.69
2023-01-11T16:56:23.901Z,99967.56
2023-01-11T16:59:16.074Z,99976.19
2023-01-11T17:01:53.433Z,99973.22
2023-01-11T17:04:30.786Z,99971.81
2023-01-11T17:07:13.276Z,99984.09
2023-01-11T17:09:43.724Z,99974.09
2023-01-11T17:12:18.628Z,99976.19
2023-01-11T17:15:30.556Z,99976.72
2023-01-11T17:18:03.627Z,99973.50
2023-01-11T17:20:31.681Z,99978.78
2023-01-11T17:22:59.488Z,99986.84
2023-01-11T17:25:44.457Z,99976.28
2023-01-11T17:28:19.475Z,99976.41
2023-01-11T17:30:54.099Z,99965.28
2023-01-11T17:33:33.527Z,99962.03
2023-01-11T17:36:01.749Z,99973.25
2023-01-11T17:38:30.296Z,99957.22
2023-01-11T17:40:58.650Z,99954.00
2023-01-11T17:43:53.280Z,99960.63
2023-01-11T17:46:26.742Z,99958.81
2023-01-11T17:48:57.745Z,99956.44
2023-01-11T17:51:28.156Z,99955.03
2023-01-11T18:07:52.957Z,99966.00
2023-01-11T19:03:12.668Z,99995.91
2023-01-11T20:56:05.678Z,99905.31
2023-01-11T21:01:24.935Z,99898.44
2023-01-11T21:47:15.290Z,99827.91
2023-01-11T22:00:25.017Z,99824.22
2023-01-11T22:02:54.372Z,99811.97
2023-01-11T22:05:21.014Z,99809.72
2023-01-11T22:07:48.727Z,99801.97
2023-01-11T22:10:16.278Z,99813.09
2023-01-11T22:12:43.113Z,99805.75
2023-01-11T22:15:10.511Z,99798.03
2023-01-11T22:17:37.369Z,99798.31
2023-01-11T22:36:37.216Z,99758.00
2023-01-11T22:39:08.680Z,99759.41
2023-01-11T22:41:35.555Z,99751.91
2023-01-11T22:44:02.154Z,99746.94
2023-01-11T22:46:28.870Z,99751.63
2023-01-11T22:49:09.036Z,99754.84
2023-01-11T22:51:36.167Z,99751.72
2023-01-11T22:54:04.127Z,99731.13
2023-01-11T22:56:32.328Z,99732.66
2023-01-11T22:58:59.872Z,99733.50
2023-01-11T23:01:34.046Z,99724.44
2023-01-11T23:04:02.307Z,99728.75
2023-01-11T23:06:41.728Z,99719.03
2023-01-11T23:09:16.046Z,99728.34
2023-01-11T23:12:02.738Z,99722.28
2023-01-11T23:14:32.807Z,99715.25
2023-01-11T23:17:06.937Z,99711.31
2023-01-11T23:19:43.044Z,99698.94
2023-01-11T23:22:10.391Z,99695.25
2023-01-11T23:24:37.865Z,99691.84
2023-01-11T23:27:05.382Z,99698.75
2023-01-11T23:29:32.255Z,99705.25
2023-01-11T23:32:01.939Z,99707.59
2023-01-11T23:34:28.644Z,99693.34
2023-01-11T23:36:55.645Z,99689.00
2023-01-11T23:39:23.586Z,99692.50
2023-01-11T23:42:08.663Z,99687.97
2023-01-11T23:44:35.385Z,99676.28
2023-01-11T23:47:20.449Z,99678.13
2023-01-11T23:49:54.223Z,99681.94
2023-01-11T23:52:27.369Z,99670.25
2023-01-11T23:54:54.555Z,99670.75
2023-01-11T23:57:22.662Z,99662.59
2023-01-11T23:59:49.598Z,99653.16
